Time;durP1;ratioP1;P1;durP2;ratioP2;P2;SDS_P1;SDS_P2;PMS_P1;PMS_P2;Temp;Humidity;BMP_temperature;BMP_pressure;BME280_temperature;BME280_humidity;BME280_pressure;Samples;Min_cycle;Max_cycle;Signal;HPM_P1;HPM_P2
2023/09/25 00:01:18;;;;;;;3.65;2.50;;;9.30;99.90;;;;;;6298470;28;20051;-77
2023/09/25 00:04:23;;;;;;;4.43;2.15;;;9.20;99.90;;;;;;6298014;28;20055;-77
2023/09/25 00:07:25;;;;;;;2.45;1.95;;;9.20;99.90;;;;;;6298221;28;20048;-76
2023/09/25 00:10:29;;;;;;;4.57;2.38;;;9.20;99.90;;;;;;6294995;28;20072;-77
2023/09/25 00:13:32;;;;;;;5.97;2.40;;;9.20;99.90;;;;;;6292003;28;20055;-77
2023/09/25 00:16:34;;;;;;;3.65;2.03;;;9.20;99.90;;;;;;6281734;28;20053;-77
2023/09/25 00:19:36;;;;;;;4.18;2.50;;;9.20;99.90;;;;;;6287002;28;20516;-77
2023/09/25 00:22:37;;;;;;;4.00;2.40;;;9.20;99.90;;;;;;6281040;28;20048;-77
2023/09/25 00:25:39;;;;;;;2.63;2.42;;;9.20;99.90;;;;;;6282618;28;20055;-77
2023/09/25 00:28:42;;;;;;;3.95;2.83;;;9.20;99.90;;;;;;6287407;28;20057;-76
2023/09/25 00:31:44;;;;;;;2.65;2.15;;;9.10;99.90;;;;;;6287577;28;20049;-77
2023/09/25 00:34:46;;;;;;;7.28;2.60;;;9.00;99.90;;;;;;6288825;28;20051;-77
2023/09/25 00:37:49;;;;;;;2.28;1.98;;;9.00;99.90;;;;;;6280338;28;20056;-77
2023/09/25 00:40:50;;;;;;;2.67;2.00;;;8.90;99.90;;;;;;6281523;28;20151;-77
2023/09/25 00:43:53;;;;;;;1.70;1.55;;;8.90;99.90;;;;;;6288053;28;20051;-77
2023/09/25 00:46:55;;;;;;;4.95;2.45;;;8.80;99.90;;;;;;6280346;28;20056;-77
2023/09/25 00:49:57;;;;;;;3.22;2.05;;;8.80;99.90;;;;;;6281591;28;20107;-76
2023/09/25 00:53:06;;;;;;;5.35;2.25;;;8.80;99.90;;;;;;6272157;28;20045;-77
2023/09/25 00:56:09;;;;;;;3.65;2.17;;;8.80;99.90;;;;;;6272293;28;20421;-77
2023/09/25 00:59:12;;;;;;;2.67;2.45;;;8.80;99.90;;;;;;6272056;28;20072;-76
2023/09/25 01:02:14;;;;;;;3.35;2.20;;;8.70;99.90;;;;;;6287843;28;20057;-77
2023/09/25 01:05:16;;;;;;;8.43;2.17;;;8.70;99.90;;;;;;6271469;28;20448;-76
2023/09/25 01:08:18;;;;;;;4.78;2.10;;;8.70;99.90;;;;;;6272053;28;20140;-77
2023/09/25 01:11:20;;;;;;;2.83;2.42;;;8.70;99.90;;;;;;6271422;28;20051;-76
2023/09/25 01:14:23;;;;;;;2.47;1.75;;;8.80;99.90;;;;;;6271273;28;20041;-77
2023/09/25 01:17:25;;;;;;;4.35;2.10;;;8.70;99.90;;;;;;6271387;28;20041;-77
2023/09/25 01:20:27;;;;;;;5.05;2.60;;;8.70;99.90;;;;;;6271688;28;20053;-77
2023/09/25 01:23:30;;;;;;;2.47;1.65;;;8.70;99.90;;;;;;6271083;28;20048;-77
2023/09/25 01:26:32;;;;;;;3.67;2.58;;;8.70;99.90;;;;;;6271321;28;20128;-77
2023/09/25 01:29:34;;;;;;;3.53;2.35;;;8.70;99.90;;;;;;6281311;28;20098;-77
2023/09/25 01:32:37;;;;;;;2.75;2.22;;;8.70;99.90;;;;;;6286002;28;20052;-76
2023/09/25 01:35:39;;;;;;;2.97;1.85;;;8.70;99.90;;;;;;6270796;28;20520;-76
2023/09/25 01:38:42;;;;;;;2.95;2.30;;;8.70;99.90;;;;;;6270632;28;20498;-76
2023/09/25 01:41:43;;;;;;;2.75;2.00;;;8.60;99.90;;;;;;6271011;28;20040;-76
2023/09/25 01:44:45;;;;;;;3.28;2.47;;;8.60;99.90;;;;;;6270793;28;20072;-77
2023/09/25 01:47:50;;;;;;;6.60;2.88;;;8.60;99.90;;;;;;6279774;28;20135;-77
2023/09/25 01:50:52;;;;;;;3.38;2.42;;;8.70;99.90;;;;;;6271603;28;20119;-76
2023/09/25 01:53:55;;;;;;;2.97;2.47;;;8.70;99.90;;;;;;6270109;28;20044;-76
2023/09/25 01:56:57;;;;;;;4.88;2.67;;;8.80;99.90;;;;;;6269648;28;20052;-77
2023/09/25 01:59:58;;;;;;;3.53;2.90;;;8.90;99.90;;;;;;6271212;28;20048;-76
2023/09/25 02:03:00;;;;;;;4.20;2.92;;;9.00;99.90;;;;;;6270385;28;20052;-77
2023/09/25 02:06:03;;;;;;;2.88;2.45;;;9.00;99.90;;;;;;6270103;28;20045;-76
2023/09/25 02:09:06;;;;;;;2.83;2.30;;;9.00;99.90;;;;;;6270254;28;20128;-77
2023/09/25 02:12:07;;;;;;;4.25;2.83;;;9.10;99.90;;;;;;6269024;28;20045;-77
2023/09/25 02:15:10;;;;;;;2.80;2.55;;;9.10;99.90;;;;;;6269681;28;20041;-77
2023/09/25 02:18:11;;;;;;;6.22;2.80;;;9.20;99.90;;;;;;6269908;28;20045;-76
2023/09/25 02:21:13;;;;;;;2.83;2.08;;;9.20;99.90;;;;;;6270105;28;20041;-76
2023/09/25 02:24:16;;;;;;;3.47;2.05;;;9.30;99.90;;;;;;6270294;28;20048;-77
2023/09/25 02:27:18;;;;;;;5.68;2.67;;;9.30;99.90;;;;;;6271930;28;20040;-77
2023/09/25 02:30:20;;;;;;;6.50;2.40;;;9.30;99.90;;;;;;6269580;28;20044;-77
2023/09/25 02:33:21;;;;;;;3.63;2.78;;;9.30;99.90;;;;;;6269543;28;20052;-77
2023/09/25 02:36:23;;;;;;;4.20;2.42;;;9.30;99.90;;;;;;6270269;28;20056;-77
2023/09/25 02:39:26;;;;;;;5.22;3.17;;;9.30;99.90;;;;;;6269500;28;20037;-77
2023/09/25 02:42:28;;;;;;;8.10;2.40;;;9.20;99.90;;;;;;6269481;28;20049;-77
2023/09/25 02:45:29;;;;;;;4.03;2.92;;;9.20;99.90;;;;;;6272055;28;20040;-77
2023/09/25 02:48:31;;;;;;;5.35;2.20;;;9.20;99.90;;;;;;6270100;28;20056;-77
2023/09/25 02:51:33;;;;;;;2.78;2.08;;;9.10;99.90;;;;;;6271680;28;20653;-77
2023/09/25 02:54:36;;;;;;;2.40;1.92;;;9.10;99.90;;;;;;6269302;28;20516;-77
2023/09/25 02:57:38;;;;;;;2.17;1.98;;;9.00;99.90;;;;;;6269417;28;20045;-77
2023/09/25 03:00:40;;;;;;;3.75;2.33;;;9.00;99.90;;;;;;6269355;28;20049;-77
2023/09/25 03:03:43;;;;;;;2.33;1.60;;;8.90;99.90;;;;;;6269900;28;20049;-77
2023/09/25 03:06:45;;;;;;;6.50;2.70;;;8.90;99.90;;;;;;6268628;28;20056;-77
2023/09/25 03:09:48;;;;;;;4.45;2.53;;;8.90;99.90;;;;;;6272201;28;20056;-77
2023/09/25 03:12:49;;;;;;;7.03;2.72;;;8.80;99.90;;;;;;6273987;28;20394;-77
2023/09/25 03:15:51;;;;;;;3.50;2.33;;;8.80;99.90;;;;;;6274520;28;20049;-77
2023/09/25 03:18:53;;;;;;;2.72;2.53;;;8.70;99.90;;;;;;6273917;28;20060;-77
2023/09/25 03:21:54;;;;;;;4.25;2.97;;;8.60;99.90;;;;;;6274004;28;20041;-77
2023/09/25 03:24:58;;;;;;;4.45;2.92;;;8.60;99.90;;;;;;6273982;28;20049;-76
2023/09/25 03:27:59;;;;;;;3.10;2.70;;;8.60;99.90;;;;;;6276908;28;20052;-77
2023/09/25 03:31:02;;;;;;;3.42;2.58;;;8.60;99.90;;;;;;6284036;28;20051;-77
2023/09/25 03:34:04;;;;;;;2.92;2.10;;;8.50;99.90;;;;;;6273850;28;20048;-77
2023/09/25 03:37:06;;;;;;;2.88;2.42;;;8.50;99.90;;;;;;6273790;28;20064;-77
2023/09/25 03:40:10;;;;;;;2.70;2.38;;;8.50;99.90;;;;;;6282529;28;20052;-77
2023/09/25 03:43:12;;;;;;;5.47;2.78;;;8.60;99.90;;;;;;6273068;28;20049;-77
2023/09/25 03:46:14;;;;;;;2.95;2.50;;;8.50;99.90;;;;;;6273457;28;20703;-77
2023/09/25 03:49:16;;;;;;;5.18;2.72;;;8.50;99.90;;;;;;6273168;28;20516;-77
2023/09/25 03:52:17;;;;;;;4.75;2.45;;;8.40;99.90;;;;;;6273753;28;20056;-77
2023/09/25 03:55:20;;;;;;;3.38;2.40;;;8.40;99.90;;;;;;6279629;28;20131;-77
2023/09/25 03:58:22;;;;;;;3.05;2.65;;;8.30;99.90;;;;;;6287773;28;20041;-76
2023/09/25 04:01:24;;;;;;;3.75;1.90;;;8.30;99.90;;;;;;6272873;28;20040;-77
2023/09/25 04:04:25;;;;;;;4.40;2.95;;;8.30;99.90;;;;;;6273607;28;20511;-77
2023/09/25 04:07:27;;;;;;;3.40;2.50;;;8.30;99.90;;;;;;6272926;28;20056;-77
2023/09/25 04:10:30;;;;;;;2.17;1.83;;;8.30;99.90;;;;;;6275874;28;20052;-77
2023/09/25 04:13:32;;;;;;;4.00;2.58;;;8.30;99.90;;;;;;6285854;28;20044;-77
2023/09/25 04:16:34;;;;;;;4.07;1.90;;;8.30;99.90;;;;;;6273240;28;20052;-76
2023/09/25 04:19:35;;;;;;;3.38;2.92;;;8.20;99.90;;;;;;6271799;28;20516;-77
2023/09/25 04:22:37;;;;;;;4.05;3.00;;;8.20;99.90;;;;;;6272383;28;20089;-77
2023/09/25 04:25:41;;;;;;;3.85;2.95;;;8.10;99.90;;;;;;6272397;28;20507;-77
2023/09/25 04:28:43;;;;;;;2.72;2.33;;;8.00;99.90;;;;;;6280495;28;20048;-77
2023/09/25 04:31:46;;;;;;;4.57;2.38;;;8.00;99.90;;;;;;6284887;28;20055;-77
2023/09/25 04:34:47;;;;;;;3.20;2.58;;;8.00;99.90;;;;;;6272029;28;20037;-77
2023/09/25 04:37:49;;;;;;;2.53;2.33;;;7.90;99.90;;;;;;6271544;28;20041;-77
2023/09/25 04:40:52;;;;;;;3.33;2.53;;;7.90;99.90;;;;;;6272257;28;20151;-77
2023/09/25 04:43:54;;;;;;;4.18;2.85;;;7.80;99.90;;;;;;6287765;28;20075;-77
2023/09/25 04:46:56;;;;;;;3.33;2.65;;;7.80;99.90;;;;;;6271887;28;20075;-76
2023/09/25 04:49:58;;;;;;;2.85;2.53;;;7.80;99.90;;;;;;6271602;28;20135;-76
2023/09/25 04:52:59;;;;;;;1.88;1.77;;;7.70;99.90;;;;;;6271983;28;20045;-76
2023/09/25 04:56:02;;;;;;;3.60;2.83;;;7.70;99.90;;;;;;6271351;28;20048;-75
2023/09/25 04:59:05;;;;;;;2.75;2.40;;;7.60;99.90;;;;;;6271693;28;20052;-76
2023/09/25 05:02:07;;;;;;;4.55;3.40;;;7.60;99.90;;;;;;6271516;28;20047;-75
2023/09/25 05:05:08;;;;;;;3.17;2.88;;;7.50;99.90;;;;;;6271443;28;20061;-75
2023/09/25 05:08:10;;;;;;;4.78;3.42;;;7.50;99.90;;;;;;6271557;28;20553;-76
2023/09/25 05:11:13;;;;;;;3.78;2.70;;;7.50;99.90;;;;;;6271137;28;20528;-76
2023/09/25 05:14:15;;;;;;;5.78;2.53;;;7.40;99.90;;;;;;6270906;28;20520;-76
2023/09/25 05:17:16;;;;;;;3.17;2.55;;;7.40;99.90;;;;;;6270678;28;20417;-76
2023/09/25 05:20:19;;;;;;;6.38;2.28;;;7.40;99.90;;;;;;6271829;28;20497;-76
2023/09/25 05:23:21;;;;;;;3.53;2.35;;;7.30;99.90;;;;;;6270810;28;20045;-76
2023/09/25 05:26:24;;;;;;;4.50;2.78;;;7.30;99.90;;;;;;6271009;28;20497;-76
2023/09/25 05:29:25;;;;;;;8.13;2.95;;;7.20;99.90;;;;;;6274727;28;20049;-76
2023/09/25 05:32:27;;;;;;;3.53;3.00;;;7.20;99.90;;;;;;6270592;28;20056;-76
2023/09/25 05:35:30;;;;;;;5.13;2.65;;;7.20;99.90;;;;;;6269877;28;20183;-76
2023/09/25 05:38:31;;;;;;;4.93;2.72;;;7.20;99.90;;;;;;6270445;28;20053;-76
2023/09/25 05:41:35;;;;;;;9.32;2.97;;;7.20;99.90;;;;;;6273350;28;20154;-76
2023/09/25 05:44:37;;;;;;;6.22;3.30;;;7.20;99.90;;;;;;6270432;28;20041;-76
2023/09/25 05:47:38;;;;;;;3.08;2.72;;;7.20;99.90;;;;;;6271234;28;20045;-76
2023/09/25 05:50:40;;;;;;;3.22;2.70;;;7.30;99.90;;;;;;6270587;28;20044;-76
2023/09/25 05:53:42;;;;;;;3.85;2.75;;;7.30;99.90;;;;;;6270132;28;20060;-76
2023/09/25 05:56:45;;;;;;;5.60;3.53;;;7.40;99.90;;;;;;6270827;28;20037;-76
2023/09/25 05:59:47;;;;;;;7.45;2.90;;;7.50;99.90;;;;;;6271097;28;20049;-76
2023/09/25 06:02:48;;;;;;;3.92;3.58;;;7.50;99.90;;;;;;6270059;28;20049;-76
2023/09/25 06:05:50;;;;;;;5.28;4.15;;;7.60;99.90;;;;;;6281875;28;20048;-75
2023/09/25 06:08:52;;;;;;;5.90;3.15;;;7.60;99.90;;;;;;6270082;28;20049;-75
2023/09/25 06:11:55;;;;;;;6.53;4.90;;;7.70;99.90;;;;;;6287180;28;20045;-76
2023/09/25 06:14:57;;;;;;;6.70;4.68;;;7.70;99.90;;;;;;6269374;28;20043;-75
2023/09/25 06:17:59;;;;;;;4.45;4.05;;;7.90;99.90;;;;;;6269839;28;20067;-75
2023/09/25 06:21:00;;;;;;;6.40;4.13;;;8.00;99.90;;;;;;6269894;28;20420;-76
2023/09/25 06:24:03;;;;;;;4.38;3.55;;;8.20;99.90;;;;;;6269824;28;20509;-76
2023/09/25 06:27:10;;;;;;;7.03;3.45;;;8.40;99.90;;;;;;6272517;28;20070;-76
2023/09/25 06:30:13;;;;;;;7.63;3.97;;;8.50;99.90;;;;;;6277641;28;20525;-76
2023/09/25 06:33:15;;;;;;;5.22;3.90;;;8.70;99.90;;;;;;6269458;28;20516;-76
2023/09/25 06:36:16;;;;;;;7.15;4.93;;;8.80;99.90;;;;;;6294938;28;20122;-76
2023/09/25 06:39:18;;;;;;;7.82;5.78;;;9.00;99.90;;;;;;6277537;28;20041;-76
2023/09/25 06:42:21;;;;;;;7.20;4.45;;;9.20;99.90;;;;;;6269239;28;20056;-76
2023/09/25 06:45:23;;;;;;;4.05;3.65;;;9.40;99.90;;;;;;6269601;28;20045;-76
2023/09/25 06:48:25;;;;;;;6.00;3.78;;;9.70;99.90;;;;;;6273101;28;20048;-76
2023/09/25 06:51:28;;;;;;;5.78;4.85;;;9.90;99.90;;;;;;6269463;28;20091;-76
2023/09/25 06:54:30;;;;;;;5.65;4.75;;;10.10;99.90;;;;;;6269046;28;20041;-76
2023/09/25 06:57:33;;;;;;;5.50;3.97;;;10.40;99.90;;;;;;6269295;28;20056;-76
2023/09/25 07:00:35;;;;;;;4.63;3.92;;;10.70;99.90;;;;;;6241898;28;20417;-75
2023/09/25 07:03:36;;;;;;;7.25;3.33;;;11.10;99.90;;;;;;6287180;28;20056;-76
2023/09/25 07:06:39;;;;;;;6.55;3.35;;;11.40;99.90;;;;;;6291401;28;20052;-76
2023/09/25 07:09:41;;;;;;;7.28;3.83;;;11.80;99.90;;;;;;6280984;28;20515;-77
2023/09/25 07:12:44;;;;;;;4.13;2.80;;;12.30;99.90;;;;;;6290400;28;20509;-76
2023/09/25 07:15:45;;;;;;;3.88;3.00;;;12.60;99.90;;;;;;6290824;28;20048;-76
2023/09/25 07:18:49;;;;;;;2.95;2.63;;;12.90;99.90;;;;;;6290828;28;20123;-77
2023/09/25 07:21:50;;;;;;;4.45;2.92;;;13.50;99.90;;;;;;6289507;28;20053;-76
2023/09/25 07:24:52;;;;;;;2.92;2.50;;;13.90;99.90;;;;;;6286552;28;20041;-76
2023/09/25 07:27:55;;;;;;;3.30;2.55;;;14.30;99.90;;;;;;6282857;28;20048;-76
2023/09/25 07:30:59;;;;;;;3.38;2.08;;;14.60;99.90;;;;;;6292415;28;20123;-76
2023/09/25 07:34:01;;;;;;;5.30;3.28;;;14.90;99.90;;;;;;6279061;28;20084;-75
2023/09/25 07:37:04;;;;;;;3.13;2.08;;;15.20;99.90;;;;;;6277308;28;20362;-76
2023/09/25 07:40:10;;;;;;;5.78;2.47;;;15.40;99.90;;;;;;6285381;28;20044;-77
2023/09/25 07:43:19;;;;;;;5.10;1.67;;;15.60;99.90;;;;;;6298909;28;20067;-79
2023/09/25 07:46:21;;;;;;;4.50;2.35;;;15.90;99.90;;;;;;6300345;28;20045;-79
2023/09/25 07:49:22;;;;;;;4.35;2.22;;;16.20;99.90;;;;;;6293645;28;20044;-78
2023/09/25 07:52:24;;;;;;;3.47;1.95;;;16.80;99.90;;;;;;6293228;28;20056;-78
2023/09/25 07:55:26;;;;;;;2.58;2.22;;;17.40;99.90;;;;;;6301258;28;20512;-78
2023/09/25 07:58:29;;;;;;;3.58;1.80;;;18.20;99.90;;;;;;6307258;28;20051;-77
2023/09/25 08:01:30;;;;;;;1.60;1.13;;;18.90;99.90;;;;;;6303114;28;20048;-78
2023/09/25 08:04:32;;;;;;;2.25;1.80;;;19.50;99.90;;;;;;6283181;28;20049;-79
2023/09/25 08:07:34;;;;;;;3.60;1.38;;;20.10;97.90;;;;;;6287761;28;20076;-77
2023/09/25 08:10:36;;;;;;;3.28;2.00;;;20.50;95.90;;;;;;6277552;28;20045;-78
2023/09/25 08:13:39;;;;;;;1.45;1.35;;;21.00;94.30;;;;;;6277764;28;20509;-78
2023/09/25 08:16:40;;;;;;;2.55;1.40;;;21.30;92.60;;;;;;6290779;28;20054;-78
2023/09/25 08:22:53;;;;;;;5.30;1.65;;;21.70;90.20;;;;;;6293107;22;20522;-80
2023/09/25 08:25:58;;;;;;;2.10;1.27;;;21.90;88.10;;;;;;6298891;28;20067;-78
2023/09/25 08:29:05;;;;;;;2.30;2.05;;;21.90;86.10;;;;;;6300151;28;20101;-80
2023/09/25 08:32:07;;;;;;;3.03;1.70;;;22.00;84.90;;;;;;6294696;28;20427;-80
2023/09/25 08:35:10;;;;;;;2.75;1.02;;;21.70;84.10;;;;;;6299681;28;20049;-80
2023/09/25 08:38:12;;;;;;;2.60;1.50;;;21.50;84.20;;;;;;6290248;28;20053;-79
2023/09/25 08:41:15;;;;;;;1.83;1.35;;;21.50;84.00;;;;;;6291326;28;20094;-78
2023/09/25 08:44:20;;;;;;;1.88;1.45;;;21.60;83.00;;;;;;6293236;28;20078;-80
2023/09/25 08:47:22;;;;;;;3.25;1.75;;;21.40;82.50;;;;;;6297273;28;20041;-79
2023/09/25 08:50:25;;;;;;;6.20;2.22;;;21.60;82.00;;;;;;6297935;28;20178;-80
2023/09/25 08:53:29;;;;;;;3.25;1.20;;;21.80;81.30;;;;;;6293563;28;20041;-80
2023/09/25 08:56:32;;;;;;;2.85;1.25;;;22.00;80.50;;;;;;6276955;28;20053;-78
2023/09/25 08:59:37;;;;;;;2.63;1.27;;;22.20;79.70;;;;;;6269281;28;20361;-78
2023/09/25 09:02:41;;;;;;;5.13;1.40;;;22.30;78.60;;;;;;6274945;28;20366;-81
2023/09/25 09:05:42;;;;;;;5.57;1.73;;;22.30;77.90;;;;;;6273872;28;20045;-78
2023/09/25 09:08:46;;;;;;;1.77;1.55;;;22.50;77.40;;;;;;6273887;28;20080;-79
2023/09/25 09:11:51;;;;;;;3.28;1.50;;;22.80;76.30;;;;;;6272922;28;20057;-77
2023/09/25 09:14:54;;;;;;;3.88;1.23;;;22.80;75.10;;;;;;6274142;28;20045;-79
2023/09/25 09:17:57;;;;;;;3.42;1.20;;;22.90;74.70;;;;;;6284078;28;20052;-82
2023/09/25 09:20:59;;;;;;;2.15;1.15;;;23.20;73.80;;;;;;6282701;28;20040;-81
2023/09/25 09:24:00;;;;;;;3.30;2.35;;;23.40;72.80;;;;;;6291899;28;20052;-81
2023/09/25 09:27:07;;;;;;;2.60;1.45;;;23.40;71.80;;;;;;6284315;28;20059;-81
2023/09/25 09:30:21;;;;;;;6.97;1.42;;;23.50;71.50;;;;;;6277110;28;20041;-81
2023/09/25 09:33:29;;;;;;;3.88;1.45;;;23.70;70.80;;;;;;6287459;28;20052;-81
2023/09/25 09:36:30;;;;;;;5.15;1.33;;;23.90;70.40;;;;;;6297273;28;20049;-81
2023/09/25 09:39:35;;;;;;;2.45;1.35;;;23.80;70.10;;;;;;6274515;28;20409;-80
2023/09/25 09:42:37;;;;;;;3.22;1.63;;;23.80;69.60;;;;;;6278449;28;20068;-79
2023/09/25 09:45:40;;;;;;;2.50;1.90;;;23.70;69.80;;;;;;6276389;28;20449;-80
2023/09/25 09:48:46;;;;;;;3.58;1.55;;;23.70;69.50;;;;;;6275919;28;20057;-81
2023/09/25 09:51:50;;;;;;;3.17;1.70;;;23.90;69.30;;;;;;6276004;28;20069;-81
2023/09/25 09:54:52;;;;;;;4.28;2.80;;;24.10;68.90;;;;;;6275339;28;20051;-80
2023/09/25 09:57:55;;;;;;;3.88;1.60;;;24.30;68.40;;;;;;6275692;28;20061;-81
2023/09/25 10:00:59;;;;;;;3.20;1.67;;;24.60;67.60;;;;;;6275728;28;20055;-80
2023/09/25 10:04:02;;;;;;;2.35;2.05;;;24.60;66.80;;;;;;6277644;28;20552;-81
2023/09/25 10:07:09;;;;;;;3.75;1.58;;;24.70;66.50;;;;;;6276806;28;20072;-80
2023/09/25 10:10:11;;;;;;;2.80;1.40;;;24.90;66.10;;;;;;6276124;28;20103;-80
2023/09/25 10:13:15;;;;;;;3.92;2.20;;;24.90;65.30;;;;;;6292411;28;20531;-80
2023/09/25 10:16:18;;;;;;;3.15;2.22;;;25.00;65.20;;;;;;6300440;28;20076;-80
2023/09/25 10:19:21;;;;;;;6.90;2.05;;;25.20;64.80;;;;;;6280905;28;20526;-80
2023/09/25 10:22:24;;;;;;;3.08;1.92;;;25.50;64.30;;;;;;6276932;28;20049;-81
2023/09/25 10:25:26;;;;;;;1.92;1.33;;;25.70;63.70;;;;;;6275633;28;20391;-81
2023/09/25 10:28:29;;;;;;;3.47;1.95;;;25.80;63.00;;;;;;6295874;28;20404;-80
2023/09/25 10:31:32;;;;;;;3.80;1.80;;;26.20;62.60;;;;;;6279678;28;20060;-80
2023/09/25 10:34:34;;;;;;;4.20;2.03;;;26.70;61.60;;;;;;6275563;28;20534;-80
2023/09/25 10:37:36;;;;;;;2.22;1.50;;;26.90;61.00;;;;;;6275547;28;20492;-80
2023/09/25 10:40:39;;;;;;;3.38;1.30;;;27.20;60.40;;;;;;6275742;28;20100;-80
2023/09/25 10:43:40;;;;;;;4.35;1.38;;;27.60;59.80;;;;;;6284140;28;20520;-80
2023/09/25 10:46:44;;;;;;;2.25;1.15;;;27.70;59.10;;;;;;6297774;28;20040;-79
2023/09/25 10:49:47;;;;;;;1.77;1.08;;;27.90;58.70;;;;;;6295319;28;20056;-78
2023/09/25 10:52:49;;;;;;;1.65;1.13;;;28.10;58.20;;;;;;6282006;28;20126;-79
2023/09/25 10:55:51;;;;;;;2.78;0.88;;;28.30;57.50;;;;;;6278853;28;20049;-80
2023/09/25 10:58:53;;;;;;;4.68;1.60;;;28.40;56.70;;;;;;6276784;28;20056;-80
2023/09/25 11:01:56;;;;;;;3.28;1.63;;;28.50;56.10;;;;;;6290439;28;20526;-79
2023/09/25 11:04:57;;;;;;;2.03;1.15;;;28.60;55.40;;;;;;6277660;28;20408;-80
2023/09/25 11:07:59;;;;;;;1.40;0.98;;;28.80;55.00;;;;;;6277285;28;20041;-80
2023/09/25 11:11:02;;;;;;;3.80;0.95;;;28.80;54.20;;;;;;6276207;28;20041;-80
2023/09/25 11:14:04;;;;;;;1.73;1.00;;;28.80;53.30;;;;;;6288073;28;20626;-79
2023/09/25 11:17:08;;;;;;;1.42;1.10;;;29.10;52.60;;;;;;6293412;28;20041;-79
2023/09/25 11:20:18;;;;;;;2.42;1.13;;;29.10;51.90;;;;;;6284693;28;20045;-79
2023/09/25 11:23:20;;;;;;;3.35;1.02;;;29.30;51.80;;;;;;6294080;28;20048;-79
2023/09/25 11:26:27;;;;;;;1.75;1.10;;;29.20;51.30;;;;;;6286402;28;20045;-80
2023/09/25 11:29:30;;;;;;;1.50;0.87;;;29.00;50.90;;;;;;6280939;28;20056;-77
2023/09/25 11:32:34;;;;;;;1.27;0.70;;;28.60;51.30;;;;;;6301613;28;20310;-77
2023/09/25 11:35:37;;;;;;;1.73;1.10;;;28.40;51.10;;;;;;6295758;28;20051;-78
2023/09/25 11:38:50;;;;;;;1.70;1.02;;;28.40;51.00;;;;;;6292806;28;20056;-81
2023/09/25 11:41:52;;;;;;;1.55;1.20;;;28.70;50.70;;;;;;6304990;28;20123;-78
2023/09/25 11:44:54;;;;;;;1.15;0.90;;;29.30;50.70;;;;;;6294625;28;20132;-78
2023/09/25 11:47:57;;;;;;;3.35;1.50;;;29.70;51.10;;;;;;6293117;28;20128;-79
2023/09/25 11:51:00;;;;;;;3.13;2.60;;;30.10;49.80;;;;;;6284526;28;20505;-79
2023/09/25 11:54:02;;;;;;;3.25;1.10;;;30.00;49.20;;;;;;6292724;28;20048;-79
2023/09/25 11:57:03;;;;;;;2.45;1.20;;;29.90;49.70;;;;;;6296874;28;20071;-79
2023/09/25 12:00:07;;;;;;;2.25;0.93;;;30.00;49.60;;;;;;6301331;28;20472;-78
2023/09/25 12:03:11;;;;;;;3.35;1.27;;;30.50;49.30;;;;;;6294131;28;20044;-79
2023/09/25 12:06:13;;;;;;;2.03;0.95;;;30.70;48.10;;;;;;6296955;28;20048;-78
2023/09/25 12:09:16;;;;;;;1.85;1.23;;;30.30;47.80;;;;;;6303794;28;20050;-80
2023/09/25 12:12:18;;;;;;;1.77;0.90;;;29.60;48.10;;;;;;6304887;28;20049;-79
2023/09/25 12:15:21;;;;;;;1.55;0.90;;;29.10;48.60;;;;;;6295147;28;20045;-79
2023/09/25 12:18:24;;;;;;;1.05;0.63;;;28.90;48.80;;;;;;6288067;28;20037;-78
